Time;durP1;ratioP1;P1;durP2;ratioP2;P2;SDS_P1;SDS_P2;PMS_P1;PMS_P2;Temp;Humidity;BMP_temperature;BMP_pressure;BME280_temperature;BME280_humidity;BME280_pressure;Samples;Min_cycle;Max_cycle;Signal;HPM_P1;HPM_P2
2021/10/25 00:02:45;;;;;;;23.25;15.70;;;;;;;;;;5091958;28;20060;-63
2021/10/25 00:05:30;;;;;;;24.00;16.00;;;;;;;;;;5092966;28;20437;-63
2021/10/25 00:08:15;;;;;;;21.48;15.90;;;;;;;;;;5092991;28;20052;-63
2021/10/25 00:11:00;;;;;;;22.27;17.05;;;;;;;;;;5091736;28;20060;-63
2021/10/25 00:13:46;;;;;;;21.00;16.42;;;;;;;;;;5072644;28;20566;-63
2021/10/25 00:16:31;;;;;;;22.55;17.50;;;;;;;;;;5072712;28;20060;-63
2021/10/25 00:19:16;;;;;;;23.30;17.67;;;;;;;;;;5072367;28;20506;-63
2021/10/25 00:22:02;;;;;;;27.63;18.83;;;;;;;;;;5072264;28;20045;-62
2021/10/25 00:24:47;;;;;;;26.77;17.98;;;;;;;;;;5057534;28;20040;-62
2021/10/25 00:27:33;;;;;;;28.70;18.83;;;;;;;;;;5072384;28;20044;-63
2021/10/25 00:30:18;;;;;;;26.88;18.75;;;;;;;;;;5056974;28;20045;-62
2021/10/25 00:33:03;;;;;;;29.33;18.55;;;;;;;;;;5057018;28;20119;-63
2021/10/25 00:35:48;;;;;;;27.45;19.45;;;;;;;;;;5072044;28;20052;-64
2021/10/25 00:38:34;;;;;;;28.15;19.92;;;;;;;;;;5072626;28;20044;-63
2021/10/25 00:41:19;;;;;;;31.13;20.67;;;;;;;;;;5072168;28;20506;-62
2021/10/25 00:44:04;;;;;;;30.13;20.42;;;;;;;;;;5071559;28;20056;-63
2021/10/25 00:46:50;;;;;;;30.08;19.10;;;;;;;;;;5072114;28;20499;-62
2021/10/25 00:49:35;;;;;;;28.10;20.10;;;;;;;;;;5056429;28;20052;-63
2021/10/25 00:52:20;;;;;;;30.58;20.27;;;;;;;;;;5072020;28;20052;-64
2021/10/25 00:55:06;;;;;;;30.88;22.05;;;;;;;;;;5056861;28;20052;-63
2021/10/25 00:57:52;;;;;;;31.60;21.58;;;;;;;;;;5057066;28;20040;-63
2021/10/25 01:00:37;;;;;;;30.38;21.60;;;;;;;;;;5071964;28;20052;-63
2021/10/25 01:03:23;;;;;;;29.15;21.63;;;;;;;;;;5061364;28;20051;-62
2021/10/25 01:06:09;;;;;;;28.30;20.35;;;;;;;;;;5092144;28;20502;-62
2021/10/25 01:08:54;;;;;;;32.25;22.52;;;;;;;;;;5076677;28;20056;-62
2021/10/25 01:11:40;;;;;;;30.35;21.23;;;;;;;;;;5077180;28;20052;-62
2021/10/25 01:14:27;;;;;;;30.27;21.17;;;;;;;;;;5075532;28;20086;-62
2021/10/25 01:17:13;;;;;;;32.55;23.23;;;;;;;;;;5066759;28;20120;-62
2021/10/25 01:19:59;;;;;;;32.42;22.40;;;;;;;;;;5056526;28;20498;-62
2021/10/25 01:22:45;;;;;;;35.15;22.27;;;;;;;;;;5056784;28;20056;-63
2021/10/25 01:25:30;;;;;;;33.55;23.25;;;;;;;;;;5072520;28;20060;-63
2021/10/25 01:28:16;;;;;;;32.15;21.85;;;;;;;;;;5076743;28;20052;-63
2021/10/25 01:31:01;;;;;;;26.23;20.55;;;;;;;;;;5092017;28;20048;-62
2021/10/25 01:33:46;;;;;;;30.30;21.83;;;;;;;;;;5075422;28;20409;-63
2021/10/25 01:36:33;;;;;;;31.55;22.67;;;;;;;;;;5056752;28;20053;-63
2021/10/25 01:39:18;;;;;;;31.70;21.85;;;;;;;;;;5056324;28;20550;-63
2021/10/25 01:42:05;;;;;;;37.50;23.92;;;;;;;;;;5056430;28;20441;-63
2021/10/25 01:44:50;;;;;;;34.92;22.10;;;;;;;;;;5056034;28;20052;-63
2021/10/25 01:47:35;;;;;;;35.15;23.42;;;;;;;;;;5056494;28;20048;-63
2021/10/25 01:50:21;;;;;;;34.97;24.30;;;;;;;;;;5056451;28;20084;-63
2021/10/25 01:53:06;;;;;;;34.30;24.50;;;;;;;;;;5056318;28;20418;-63
2021/10/25 01:55:56;;;;;;;34.58;23.83;;;;;;;;;;5055754;28;20049;-63
2021/10/25 01:58:43;;;;;;;35.80;23.38;;;;;;;;;;5070369;28;20506;-63
2021/10/25 02:01:29;;;;;;;38.92;24.05;;;;;;;;;;5057094;28;20056;-63
2021/10/25 02:04:14;;;;;;;31.60;22.45;;;;;;;;;;5060035;28;20147;-63
2021/10/25 02:06:59;;;;;;;38.38;25.40;;;;;;;;;;5061736;28;20123;-63
2021/10/25 02:09:46;;;;;;;35.80;22.63;;;;;;;;;;5059800;28;20457;-62
2021/10/25 02:12:31;;;;;;;36.10;24.23;;;;;;;;;;5078791;28;20052;-62
2021/10/25 02:15:17;;;;;;;32.78;23.35;;;;;;;;;;5083882;28;20049;-63
2021/10/25 02:18:03;;;;;;;38.72;26.50;;;;;;;;;;5073289;28;20048;-62
2021/10/25 02:20:49;;;;;;;37.95;26.63;;;;;;;;;;5080023;28;20056;-62
2021/10/25 02:23:40;;;;;;;40.20;26.17;;;;;;;;;;5085532;28;20126;-63
2021/10/25 02:26:25;;;;;;;38.42;25.95;;;;;;;;;;5090041;28;20052;-63
2021/10/25 02:29:11;;;;;;;37.45;24.73;;;;;;;;;;5088961;28;20056;-63
2021/10/25 02:31:57;;;;;;;38.97;25.40;;;;;;;;;;5059688;28;20052;-63
2021/10/25 02:34:45;;;;;;;36.00;25.63;;;;;;;;;;5059295;28;20048;-63
2021/10/25 02:37:30;;;;;;;35.85;24.33;;;;;;;;;;5070865;28;20502;-63
2021/10/25 02:40:15;;;;;;;38.95;25.08;;;;;;;;;;5079560;28;20043;-63
2021/10/25 02:43:01;;;;;;;37.25;24.27;;;;;;;;;;5079433;28;20052;-62
2021/10/25 02:45:46;;;;;;;36.28;24.77;;;;;;;;;;5079325;28;20094;-63
2021/10/25 02:48:32;;;;;;;35.75;23.98;;;;;;;;;;5060903;28;20123;-62
2021/10/25 02:51:22;;;;;;;34.03;24.15;;;;;;;;;;5082710;28;20093;-63
2021/10/25 02:54:11;;;;;;;38.88;26.23;;;;;;;;;;5079811;28;20477;-62
2021/10/25 02:57:05;;;;;;;43.25;25.60;;;;;;;;;;5077819;28;20059;-62
2021/10/25 02:59:54;;;;;;;41.33;27.48;;;;;;;;;;5079077;28;20056;-63
2021/10/25 03:02:40;;;;;;;40.03;26.52;;;;;;;;;;5093503;28;20056;-63
2021/10/25 03:05:25;;;;;;;42.45;26.83;;;;;;;;;;5078626;28;20056;-62
2021/10/25 03:08:11;;;;;;;37.33;25.63;;;;;;;;;;5068870;28;20494;-62
2021/10/25 03:10:58;;;;;;;45.13;27.25;;;;;;;;;;5059066;28;20087;-63
2021/10/25 03:13:43;;;;;;;41.72;26.38;;;;;;;;;;5058087;28;20573;-62
2021/10/25 03:16:28;;;;;;;44.88;27.05;;;;;;;;;;5058745;28;20052;-63
2021/10/25 03:19:14;;;;;;;41.38;28.15;;;;;;;;;;5073279;28;20048;-62
2021/10/25 03:21:59;;;;;;;40.10;26.90;;;;;;;;;;5079001;28;20123;-63
2021/10/25 03:24:45;;;;;;;38.40;25.40;;;;;;;;;;5078385;28;20123;-63
2021/10/25 03:27:32;;;;;;;37.45;25.85;;;;;;;;;;5078831;28;20643;-63
2021/10/25 03:30:18;;;;;;;38.28;25.42;;;;;;;;;;5073415;28;20052;-63
2021/10/25 03:33:07;;;;;;;34.55;25.13;;;;;;;;;;5058441;28;20052;-63
2021/10/25 03:36:04;;;;;;;39.97;25.70;;;;;;;;;;5058482;28;20048;-62
2021/10/25 03:38:50;;;;;;;38.83;25.40;;;;;;;;;;5057916;28;20045;-63
2021/10/25 03:41:40;;;;;;;39.05;26.92;;;;;;;;;;5058486;28;20057;-63
2021/10/25 03:44:29;;;;;;;39.45;26.30;;;;;;;;;;5058128;28;20056;-63
2021/10/25 03:47:26;;;;;;;39.95;26.40;;;;;;;;;;5073486;28;20060;-62
2021/10/25 03:50:17;;;;;;;41.40;26.10;;;;;;;;;;5057609;28;20492;-63
2021/10/25 03:56:18;;;;;;;41.55;25.20;;;;;;;;;;5057866;28;20434;-63
2021/10/25 04:26:51;;;;;;;37.85;26.38;;;;;;;;;;5077488;28;20095;-63
2021/10/25 04:29:37;;;;;;;37.38;25.05;;;;;;;;;;5067238;28;20052;-62
2021/10/25 04:32:22;;;;;;;35.10;23.75;;;;;;;;;;5057194;28;20052;-62
2021/10/25 04:35:08;;;;;;;35.42;25.17;;;;;;;;;;5056873;28;20049;-64
2021/10/25 04:38:31;;;;;;;32.38;23.40;;;;;;;;;;5072399;28;20049;-64
2021/10/25 04:41:16;;;;;;;34.50;22.75;;;;;;;;;;5057211;28;20048;-65
2021/10/25 04:44:01;;;;;;;29.55;22.10;;;;;;;;;;5057162;28;20067;-63
2021/10/25 04:46:46;;;;;;;31.83;22.02;;;;;;;;;;5057260;28;20061;-64
2021/10/25 04:49:32;;;;;;;33.67;23.55;;;;;;;;;;5056765;28;20045;-63
2021/10/25 04:52:35;;;;;;;27.15;20.02;;;;;;;;;;5072295;28;20044;-64
2021/10/25 04:55:21;;;;;;;33.33;22.10;;;;;;;;;;5056831;28;20060;-64
2021/10/25 04:58:06;;;;;;;26.08;20.67;;;;;;;;;;5056999;28;20056;-64
2021/10/25 05:00:51;;;;;;;27.08;20.50;;;;;;;;;;5080215;28;20043;-64
2021/10/25 05:03:36;;;;;;;27.85;20.73;;;;;;;;;;5073459;28;20663;-64
2021/10/25 05:06:22;;;;;;;24.45;20.30;;;;;;;;;;5072085;28;20417;-64
2021/10/25 05:09:10;;;;;;;26.55;20.55;;;;;;;;;;5056848;28;20052;-65
2021/10/25 05:11:57;;;;;;;29.08;20.42;;;;;;;;;;5057210;28;20498;-63
2021/10/25 05:14:43;;;;;;;23.80;18.45;;;;;;;;;;5071685;28;20052;-64
2021/10/25 05:17:28;;;;;;;26.25;19.48;;;;;;;;;;5056957;28;20049;-64
2021/10/25 05:20:18;;;;;;;26.83;20.08;;;;;;;;;;5056267;28;20131;-63
2021/10/25 05:23:09;;;;;;;21.25;17.15;;;;;;;;;;5056698;28;20456;-63
2021/10/25 05:25:54;;;;;;;23.77;18.73;;;;;;;;;;5056834;28;20052;-64
2021/10/25 05:28:40;;;;;;;26.95;19.95;;;;;;;;;;5057159;28;20124;-63
2021/10/25 05:31:26;;;;;;;25.83;19.88;;;;;;;;;;5071778;28;20048;-64
2021/10/25 05:34:11;;;;;;;27.15;19.40;;;;;;;;;;5056541;28;20107;-64
2021/10/25 05:36:57;;;;;;;25.70;19.27;;;;;;;;;;5059820;28;20502;-64
2021/10/25 05:39:42;;;;;;;25.58;18.38;;;;;;;;;;5064712;28;20048;-64
2021/10/25 05:42:27;;;;;;;26.00;19.85;;;;;;;;;;5080582;28;20059;-64
2021/10/25 05:45:13;;;;;;;27.15;19.63;;;;;;;;;;5078518;28;20118;-64
2021/10/25 05:47:58;;;;;;;25.23;19.08;;;;;;;;;;5060437;28;20060;-64
2021/10/25 05:50:45;;;;;;;29.58;20.20;;;;;;;;;;5067292;28;20071;-64
2021/10/25 05:53:31;;;;;;;23.75;19.33;;;;;;;;;;5080288;28;20052;-64
2021/10/25 05:56:17;;;;;;;26.48;19.60;;;;;;;;;;5080393;28;20047;-64
2021/10/25 05:59:04;;;;;;;27.42;20.00;;;;;;;;;;5080409;28;20055;-64
2021/10/25 06:01:57;;;;;;;32.65;21.20;;;;;;;;;;5079111;28;20052;-64
2021/10/25 06:04:44;;;;;;;27.15;18.33;;;;;;;;;;5079889;28;20055;-65
2021/10/25 06:07:38;;;;;;;30.17;19.90;;;;;;;;;;5080410;28;20123;-66
2021/10/25 06:10:30;;;;;;;24.08;18.48;;;;;;;;;;5075026;28;20052;-65
2021/10/25 06:13:26;;;;;;;24.02;19.42;;;;;;;;;;5075087;28;20048;-65
2021/10/25 06:16:19;;;;;;;24.25;18.30;;;;;;;;;;5059881;28;20048;-65
2021/10/25 06:19:11;;;;;;;25.73;18.00;;;;;;;;;;5059883;28;20053;-64
2021/10/25 06:21:56;;;;;;;24.17;18.70;;;;;;;;;;5059475;28;20060;-65
2021/10/25 06:24:47;;;;;;;23.98;18.55;;;;;;;;;;5059615;28;20056;-65
2021/10/25 06:27:33;;;;;;;25.10;18.88;;;;;;;;;;5059675;28;20056;-64
2021/10/25 06:30:18;;;;;;;27.38;18.65;;;;;;;;;;5059387;28;20048;-64
2021/10/25 06:33:07;;;;;;;28.55;19.05;;;;;;;;;;5059298;28;20048;-64
2021/10/25 06:36:21;;;;;;;25.38;18.83;;;;;;;;;;5059359;28;20403;-65
2021/10/25 06:39:15;;;;;;;23.65;18.95;;;;;;;;;;5059343;28;20060;-65
